Race Results for
McDowell Mt. Circuit race
Fountain Hills, AZ
(Event Information)
View By:
Road Race on 02/07/2010

Note: Ranking points are NOT upgrade points. An explanation of ranking points can be found here.


Men - Pro/Cat 1/2

 Place Points NameCity, StateTime USAC #BibTeam
1 Chad Beyer   Tucson, AZ00:00:00.00 155190  65 BMC Racing
2 Cole House   Oneida Wi00:00:00.00 183112  58 BMC Racing
3 Logan Loader   Pacific Grove, CA00:00:00.00 198542  66 Lucemie La Quimper
4 Ryan Nye   Westover, WV00:00:00.00 236600  41 Jet Fuel Coffee Cycling
5 Jake Rubelt   00:00:00.00  396 Ride Clean
6 Nicholaus Schreiber   Tucson, AZ00:00:00.00 93359  56 Landis/Trek
7 Chad Hartley   Fox Point, WI00:00:00.00 126996  61 Kenda Pro
8 Jonathan Parrish (1 - Pro)   Chandler, AZ00:00:00.00 147952  62 Kenda Pro
9 James Stemper   Wauwatosa, WI00:00:00.00 230799  59 Kenda Pro
10 Ronald Jensen   Tucson, AZ00:00:00.00 82670  54 Ride Clean
11 Victor Riquelme   Tucson, AZ00:00:00.00 282338  44 Trisports Cycling/Eclipse Racing
12 Jared Gilyard   00:00:00.00  50 Ride Clean
13 Brian Rach   Chilton, WI00:00:00.00 257820  60 IS Corp
14 Salvatore Scotto DiVetta (1 - Cat1)   Novi, MI00:00:00.00 234631  46 Bobaco
15 Evan Hyde   Park City, UT00:00:00.00 221976  39 Bahati Foundation Pro Cycling Team
16 Thomas Jondall   Tucson Az00:00:00.00 243091  55 Landis/Trek
17 Link King   Phoenix00:00:00.00 86406  52 Bicycle Haus Racing
18 David Reid   Mesa, AZ00:00:00.00 60513  43 Landis/Trek
19 Paul Thomas   00:00:00.00  394 Ride Clean
20 Sean Passage   Bend, OR00:00:00.00 153756  42 Hagens Berman Cycling
21 R Trueheart Brown   Flagstaff, AZ00:00:00.00 93907  36 Bicycle Haus Racing
23 Daniel Rooke   Phoenix, AZ00:00:00.00 107727  45 AZphalt Cycling
24 Kevin Kirkwood   Scottsdale, AZ00:00:00.00 47269  387 Bicycle Haus Racing
25 Scott Arnold   Phoenix, AZ00:00:00.00 1957  63 Bicycle Haus Racing
26 travis mccabe (2 - Cat1)   Tucson, AZ00:00:00.00 268330  40 Waste Management
DNS Ryan Zupko   Chandler, AZ00:00:00.00 170296  48 Bicycle Haus Racing
DNF Robert Dolman   Scottsdale, AZ00:00:00.00 186426  37 Bicycle Haus Racing
DNF Joe Ebenroth   Scottsdale, AZ00:00:00.00 246607  38 Bicycle Haus Racing
DNF Brian Lemke   Cave Creek, AZ00:00:00.00 59550  49 Landis/Trek
DNF Todd Mion   00:00:00.00  395 Ride Clean
DNF Jonathan Chodroff (Pro)   Kennett Square, PA00:00:00.00 230448  51 Jelly Belly
DNF Sean Mazich   Yuma, AZ00:00:00.00 196405  57 Jelly Belly
DNF Brian Cornelius   Tucson, AZ00:00:00.00 178293  64 Trisports Cycling/Eclipse Racing
DNF Bob Pongratz   Scottsdale, AZ00:00:00.00 28412  453 Team RPM
DNF Ryan O'Connor   Cincinnati, OH00:00:00.00 91766  69 Carlo's O'Briens Raching

Men - Cat 2

 Place Points NameCity, StateTime USAC #BibTeam
1 Joe Susco   Mesa, AZ00:00:00.00 222729  392 Bicycle Haus Racing
2 Michael Sencenbaugh   Carroll, IA00:00:00.00 239743  252/47 First Rate Mortgage
3 Robert Dolman   Scottsdale, AZ00:00:00.00 186426  248 Bicycle Haus Racing
4 Bob Pongratz   Scottsdale, AZ00:00:00.00 28412  453 Team RPM
5 Zac Coolman   Scottsdale, AZ00:00:00.00 61037  253 Waste Management
6 Kyle Peppo   New York, NY00:00:00.00 231787  251 G.S. Mengoni U.S.A.
7 Shawn Brick   Scottsdale, AZ00:00:00.00 135067  391 Bicycle Haus Racing
8 Joe Ebenroth   Scottsdale, AZ00:00:00.00 246607  249/38 Bicycle Haus Racing
9 Travis Erwin   Salt Lake City, UT00:00:00.00 241581  250 Bicycle Ranch
10 Joel Cleare   Gilbert, AZ00:00:00.00 40054  53 
11 Justin Leighton   Houston, TX00:00:00.00 129185  373 Pro Active Racing
12 Steven Stuart   Scottsdale, AZ00:00:00.00 34475  516 Bicycle Haus Racing
13 Matthew Holecko   Scottsdale, AZ00:00:00.00 148285  393 Carlos O'Briens Racing
DNF travis mccabe   Tucson, AZ00:00:00.00 268330  40 Waste Management

Men - Cat 4

 Place Points NameCity, StateTime USAC #BibTeam
1 Marcus Hayward   Mesa, AZ00:00:00.00 241388  321 Bicycle Ranch
2 Doug Lage   Scottsdale, AZ00:00:00.00 226838  325 Bicycle Ranch
3 Steve Brechner   Cavecreek, AZ00:00:00.00 286153  316 Carlos O'Brien's Racing
4 Ryan Begley   Scottsdale, AZ00:00:00.00 266234  314 Bicycle Haus Racing
5 William Westfall   Phoenix, AZ00:00:00.00 171794  335 Bicycle Haus Racing
6 Jake Merry   Tucson, AZ00:00:00.00 197044  367 Echelon
7 Jesse Robles   Tempe, AZ00:00:00.00 291058  330 Bicycle Haus/ CCC
8 Matthew Duke   Litchfield Park, AZ00:00:00.00 194520  318 DNA Cycles Racing
9 Raymond Papineau   Anthem, AZ00:00:00.00 27190  365 Arizona Masters Racing
10 David Able   Flagstaff, AZ00:00:00.00 287839  311 
11 Michael Krall   Phoenix, AZ00:00:00.00 227584  362 Swiss American
12 Jeff Armstrong   Mesa, AZ00:00:00.00 288958  312 DNA CYCLES RACING
14 Max Cronyn   Washington, DC00:00:00.00 277670  334 El Grupo Youth Cycling
15 Russell LaFleur   Phoenix, AZ00:00:00.00 290144  337 Bicycle Haus Racing
16 Daniel Redivo   Mesa, AZ00:00:00.00 107652  504 Team DNA
17 Doug Stewart   Tucson, AZ00:00:00.00 206577  500 Team RPM
18 Owen Graves   Scottsdale, AZ00:00:00.00 289809  320 Bicycle Huas
19 Judah Cain   Phoenix, AZ00:00:00.00 256553  368 Carlos O'Brien's Racing
20 Stephen Marcucci   Phoenix, AZ00:00:00.00 223146  326 Team DNA
21 Andrew Smith   Mill Valley, CA00:00:00.00 296574  333 Bicycle Haus Racing
23 David Craw   Mesa, AZ00:00:00.00 271720  369 Arizona Masters Racing
24 Peter Michaud   Tucson, AZ00:00:00.00 258249  336 Echelon
26 Jeff Biever   Phoenix, AZ00:00:00.00 251657  315 Strada Racing
28 matthew Pobloske   Tucson, AZ00:00:00.00 288775  328 Echelon
29 Richard Horn   Tucson, AZ00:00:00.00 267483  323 Echelon Racing
29 Michael Misevch   Tucson, AZ00:00:00.00 290204  338 Echelon Racing
30 Michael Simmons   602-228-939100:00:00.00 288546  332 Arizona Masters Racing
32 Blake Savage   Mesa, AZ00:00:00.00 279523  331 San Tan Racing/Paragon Cycling
33 Stephen Atkins   Tempe, AZ00:00:00.00 272200  313 San Tan Racing/Paragon Cycling
DNF Chris Carlson   Phoenix, AZ00:00:00.00 249756  317 San Tan Racing
DNF DARIN FILA   Mesa, AZ00:00:00.00 254582  319 Team DNA Racing
DNF Jim Holbrook   Peoria, AZ00:00:00.00 247766  322 Arizona Masters Racing
DNF Everardo Keeme   Laveen, AZ00:00:00.00 18694  324 Landis/Trek
DNF Brian Marcucci   Phoenix, AZ00:00:00.00 221141  327 DNA Cycles Racing
DNF Michael Radcliff   Tucson, AZ00:00:00.00 294312  329 Team DNA Racing
DNF Kurt Smith   Maricopa, AZ00:00:00.00 269212  376 San Tan Racing/Paragon Cycling
DNF Eran Mahrer   Scottsdale, AZ00:00:00.00 303105  630 Arizona Masters Racing
DNF Eric Wasson   Phoenix, AZ00:00:00.00 237323  366 Team Slippery Pig
DNF C (Joseph) Statt   Phoenix, AZ00:00:00.00 253514  363 Landis/Trek
DNF Andres Douzoglou   Berkeley, CA00:00:00.00 285199  361 Tribe Racing
DNF Anthony Ritter   Scottsdale, AZ00:00:00.00 248286  360 Arizona Masters Racing
DNF Jose Migoni   Phoenix, AZ00:00:00.00 212510  364 Tribe Racing

Men - Cat 5

 Place Points NameCity, StateTime USAC #BibTeam
1 mark ryan   Phoenix, AZ00:00:00.00 298303  643 team one
2 Aaron Matos   Scottsdale, AZ00:00:00.00 303271  632 Swiss American
3 Chad Bartlett   Woodbine, MD00:00:00.00 303932  602 Bicycle Haus Racing
4 Kevin Palmer   Tucson, AZ00:00:00.00 288334  637 
5 Jared Jorde   Tucson, AZ00:00:00.00 305455  628 Bicycle Haus Racing
6 Andy Gracyalny   Phoenix, AZ00:00:00.00 304990  622 Waste Managment
7 David Genovese   Phoenix, AZ00:00:00.00 176999  618 Team DNA Racing
8 David Wilcox   Chandler, AZ00:00:00.00 275113  653 Tribe Racing
10 Tyson Kelley   Anthem, AZ00:00:00.00 280849  629 
11 Mark Gonzales   Queen Creek, AZ00:00:00.00 304307  621 Bicycle Haus Racing
12 Adam Folts   Phoenix, AZ00:00:00.00 304060  617 
13 Scott Farnsworth   Glendale, AZ00:00:00.00 287179  616 
14 Brian deGuzman   Paradise Valley, AZ00:00:00.00 302206  611 bicycle Haus Racing
15 Craig Turner   Gilbert, AZ00:00:00.00 285005  652 
16 Keith Jankovsky   Tempe, AZ00:00:00.00 278383  626 Bicycle Haus Racing
17 Chris Colson   Cave Creek, AZ00:00:00.00 295487  607 Strada Racing Club
18 Ryan Repucci   Tucson, AZ00:00:00.00 272187  641 Wolf Pack Cycling
19 Michael Goldman   Flagstaff, AZ00:00:00.00 303237  620 Red Rock Racing
20 David Conklin   Scottsdale, AZ00:00:00.00 296329  608 Racelab U23
21 Michael Moss   Apache Junction, AZ00:00:00.00 297008  634 Two Wheel Jones
22 Ron Stevens   Phoenix, AZ00:00:00.00 244258  648 Team WM
23 michael evanoff   Phoenix, AZ00:00:00.00 307024  615 Swiss American
24 Michael Shannon   Queen Creek, AZ00:00:00.00 251760  645 Landis/Trek
25 Tyrel Harlan   Kingman, AZ00:00:00.00 296725  624 
26 Jim Niemeyer   Anthem, AZ00:00:00.00 291276  635 Arizona Masters Racing
27 Eric Rosenberg   Scottsdale, AZ00:00:00.00 167884  642 Arizona Masters Racing
28 Caleb Guest   Phoenix, AZ00:00:00.00 241991  623 
29 Curtis CHICKERNEO   00:00:00.00  605 
30 Jeff Harrelson   Scottsdale, AZ00:00:00.00 93386  625 
31 Kyle Claffey   Phx, AZ00:00:00.00 304985  606 
32 TI MORSE   Scottsdale, AZ00:00:00.00 304857  633 Tribe Racing
34 Chad Rainey   Cave Creek, AZ00:00:00.00 291469  640 Carlos O'Briens Racing
35 Bill McCarville   Scottsdale, AZ00:00:00.00 96766  654 Bicycle Ranch
36 David DeNitto   Phoenix, AZ00:00:00.00 257745  612 DNA Cycles Racing
37 mike sanchez   Phoenix, AZ00:00:00.00 305142  644 tribe racing
38 Bill Parmentier   Gilbert, AZ00:00:00.00 255578  638 RideClean
DNS Glenn Allen   Scottsdale, AZ00:00:00.00 304228  600 Team Progressive/World Motors
DNS Lucien Bianchi   Phoenix, AZ00:00:00.00 287608  603 Bicycle Haus Racing
DNS Christopher Carter   Fountain Hills, AZ00:00:00.00 306854  604 
DNS Andrew Cope   Clearwater, FL00:00:00.00 279994  609 Tribe Racing
DNS Scott Countryman   Flagstaff, AZ00:00:00.00 258025  610 San Tan Racing
DNS Jeremy Dlugosz   Phoenix, AZ00:00:00.00 288843  613 Bicycle Haus Racing
DNS Travis Gildner   Scottsdale, AZ00:00:00.00 292501  619 Landis Cyclery
DNS Darcy Johnson   Yuma, AZ00:00:00.00 306367  627 YBC Racing
DNS Chad MANDELBAUM   00:00:00.00  631 
DNS Marc Overson   Vail, AZ00:00:00.00 288760  636 
DNS Scott Piercefield   Golden, CO00:00:00.00 305918  639 Bicycle Haus
DNS Peter Smith   Scottsdale, AZ00:00:00.00 266653  647 Bicycle Ranch
DNS Colin Taira   Phoenix, AZ00:00:00.00 304380  649 Bicycle Haus Racing
DNS Robert Taynton   Phoenix, AZ00:00:00.00 225611  650 
DNS Jonathan Triplett   Tucson, AZ00:00:00.00 306832  651 
DNF Scott Skinner   Anthem, AZ00:00:00.00 304800  646 Arizona Masters Racing
DNF Ronald Arroyo   Scottsdale, AZ00:00:00.00 275352  601 Bicycle Ranch
DNF Scott Sanders   Gilbert, AZ00:00:00.00 304505  655 San Tan Racing
DNF Josh Edwards   Tempe, AZ00:00:00.00 303525  614 
DNF Steven Walmsley   Anthem, AZ00:00:00.00 305577  656 Unattached

Men - Masters - 30-99

 Place Points NameCity, StateTime USAC #BibTeam
1 Marcus Hayward   Mesa, AZ00:00:00.00 241388  321 Bicycle Ranch
2 Kevin Kirkwood   Scottsdale, AZ00:00:00.00 47269  387 
3 Bryan Antol   Flagstaff, AZ00:00:00.00 1806  386 GST Racing
4 Jacob Rubelt   Tucson, AZ00:00:00.00 79833  396 Ride Clean
5 DouG Powell   Phoenix, AZ00:00:00.00 122778  375 AZphalt Cycling
6 Paul Thomas   Tucson, AZ00:00:00.00 87933  394 Ride Clean
7 Joe Susco   Mesa, AZ00:00:00.00 222729  392 Bicycle Haus Racing
8 Byron Nix   Centennial, CO00:00:00.00 69161  390 Rio Grande
9 Rider Unknown   00:00:00.00  378 
10 Todd Mion   Greenville , SC00:00:00.00 50781  395 Ride Clean
11 Justin Leighton   Houston, TX00:00:00.00 129185  373 Proactive
12 Cody Hall   Scottsdale, AZ00:00:00.00 58522  383 Bicycle Haus Racing
13 Jim Silverman   Flagstaff, AZ00:00:00.00 183486  385 GST Racing
14 Daryll McKenzie   Marana, AZ00:00:00.00 138171  399 Team Rhino
15 Shawn Brick   00:00:00.00  391 Bicycle Haus Racing
15 Scott Baker   00:00:00.00  374 Honeywell Racing
16 Craig Streit   Scottsdale, AZ00:00:00.00 197252  397 Carlos O'Briens Racing
17 Marty Ryserson   00:00:00.00  854 Ride Clean
18 Chris Poole   Phoenix, AZ00:00:00.00 120794  382 Honeywell Racing
19 Kale Keltz   Scottsdale, AZ00:00:00.00 140286  384 Bicycle Haus Racing
20 Scott Biaggi   Tucson, AZ00:00:00.00 140879  377 GST Racing
21 Matthew Holecko   Scottsdale, AZ00:00:00.00 148285  393 Carlos O'Briens Racing
23 David Straus   Phoenix, AZ00:00:00.00 34380  388 Carlos O'Briens Racing
DNF Rick Bucher   Carefree, AZ00:00:00.00 5317  370 
DNF Marcus Hayward   Mesa, AZ00:00:00.00 241388  372 Bicycle Ranch
DNF Kurt Smith   Maricopa, AZ00:00:00.00 269212  376 San Tan Racing/Paragon Cycling
DNF Andy Gracyalny   Phoenix, AZ00:00:00.00 304990  622 Waste Managment
DNF Aaron Matos   Scottsdale, AZ00:00:00.00 303271  632 Swiss American
DNF Nelson Cronyn   Washington, DC00:00:00.00 62396  509 Team RPM
DNF Kurt Kroese   Tucson, AZ00:00:00.00 190256  389 GST Racing
DNF Jesus Lamb   Tucson, AZ00:00:00.00 191857  371 GST Racing
DNF Craig Hamilton   Phoenix, AZ00:00:00.00 166357  379 Arizona Masters Racing
DNF David Green (Cat3)   Phoenix, AZ00:00:00.00 216863  380 San Tan Racing/Paragon Cycling
DNF Kyle Butkiewicz   Paradise Valley, AZ00:00:00.00 79936  381 Bicycle Haus Racing
DNF Jeff Herrera   Tempe, AZ00:00:00.00 210732  398 Carlos O'Briens Racing
DNF Judah Cain (Cat4)   Phoenix, AZ00:00:00.00 256553  368 Carlos O'Briens Racing
DNF Ryan O'Conner   00:00:00.00  471 Carlos O'Briens Racing

Men - Masters - 40-99

 Place Points NameCity, StateTime USAC #BibTeam
1 Bryan Antol   Flagstaff, AZ00:00:00.00 1806  386 GST Racing
2 Brian Lemke   Cave Creek, AZ00:00:00.00 59550  49 Landis/Trek
3 Cody Hall   Scottsdale, AZ00:00:00.00 58522  383 Bicycle Haus Racing
4 Scott Baker   Oro Valley, AZ00:00:00.00 82541  374 GST Racing
5 Byron Nix   Centennial, CO00:00:00.00 69161  390 Rio Grande
6 Mark Fosenburg   Phoenix, AZ00:00:00.00 143238  378 Honeywell Racing
7 DouG Powell   Phoenix, AZ00:00:00.00 122778  501/375 AZphalt Cycling
8 Kyle Butkiewicz   Paradise Valley, AZ00:00:00.00 79936  381 Bicycle Haus Racing
9 Marty Ryserson   00:00:00.00  854 Ride Clean
10 Nelson Cronyn   Washington, DC00:00:00.00 62396  509 Team RPM
11 Steve Brechner   Cavecreek, AZ00:00:00.00 286153  502 Carlos O'Brien's Racing
12 Kurt Kroese   Tucson, AZ00:00:00.00 190256  389 GST Racing
13 Scott Biaggi   Tucson, AZ00:00:00.00 140879  377 GST Racing
13 Craig Hamilton   Phoenix, AZ00:00:00.00 166357  379 Arizona Masters Racing
14 Shawn Daly   Tucson, AZ00:00:00.00 205616  503 southwest hand
15 Jesus Lamb   Tucson, AZ00:00:00.00 191857  371 GST Racing
16 Eran Mahrer   Scottsdale, AZ00:00:00.00 303105  630 Arizona Masters RAcing
17 James Kramer   Scottsdale, AZ00:00:00.00 54748  507 Arizona Masters Racing
18 Bryan Staub   Gilbert, AZ00:00:00.00 175776  514 Arizona Masters Racing
19 Bill McCarville (1 - Cat4)   Scottsdale, AZ00:00:00.00 96766  654 Bicycle Ranch
20 Kurt Smith   Maricopa, AZ00:00:00.00 269212  376A San Tan Racing/Paragon Cycling
21 Rider Unknown   00:00:00.00  801 
22 Doug Stewart   Tucson, AZ00:00:00.00 206577  500 Team RPM
23 Steven Stuart   Scottsdale, AZ00:00:00.00 34475  516 Bicycle Haus Racing
24 Jim Silverman   Flagstaff, AZ00:00:00.00 183486  385 GST Racing
25 David Green (1 - Cat3)   Phoenix, AZ00:00:00.00 216863  380 San Tan Racing/Paragon Cycling
26 Andrew Hosterman   Tucson, AZ00:00:00.00 48867  506 Southwest Hand Cycling Team
27 Jim Holbrook   Peoria, AZ00:00:00.00 247766  322 Arizona Masters Racing
28 John Ritter   00:00:00.00  861 Bicycle Ranch
29 Kurt Kroemer   Phoenix, AZ00:00:00.00 200910  508 Arizona Master Racing Team
30 Sean Stephenson   Phoenix, AZ00:00:00.00 107476  513 Phx. Consumers
31 Ronald Arroyo   Scottsdale, AZ00:00:00.00 275352  601 Bicycle Ranch
32 Chris Poole   Phoenix, AZ00:00:00.00 120794  382 Honeywell Racing
DNF Richard Horn   Tucson, AZ00:00:00.00 267483  323 Echelon Racing
DNF Kurt Smith   Maricopa, AZ00:00:00.00 269212  376 San Tan Racing/Paragon Cycling
DNF Jeff Baylor   Scottsdale, AZ00:00:00.00 282609  501 AZ Masters Racing
DNF David Reid   Mesa, AZ00:00:00.00 60513  511 Landis/Trek
DNF Michael Simmons   602-228-939100:00:00.00 288546  512 Arizona Masters Racing
DNF Robert Taynton (Cat5)   Phoenix, AZ00:00:00.00 225611  515 
DNF Kenneth Halal (Cat3)   Higley, AZ00:00:00.00 140652  376 Team Joost
DNF matthew Pobloske   Tucson, AZ00:00:00.00 288775  328 Echelon Racing
DNF Bill Parmentier   Gilbert, AZ00:00:00.00 255578  638 Ride Clean
DNF richard giordano   Chandler, AZ00:00:00.00 274800  505 Strada Racing
DNF Raymond Papineau   Anthem, AZ00:00:00.00 27190  365 Arizona Masters Racing

Men - Masters - 50-99

 Place Points NameCity, StateTime USAC #BibTeam
1 Bob Pongratz   Scottsdale, AZ00:00:00.00 28412  453 Team RPM
2 Steve Cullinan   Paradise Valley, AZ00:00:00.00 87674  465 Team WM
3 Bill McDorman   Tucson, AZ00:00:00.00 180347  459 Team One
4 Corky Kurtz   Flagstaff, AZ00:00:00.00 80186  467 Team One
5 Lionel Space   Phoenix, AZ00:00:00.00 197647  462 Strada Racing
6 Andrew Hosterman   Tucson, AZ00:00:00.00 48867  458/506 Southwest Hand Cycling Team
7 Kenneth Halal (1 - Cat3)   Higley, AZ00:00:00.00 140652  801/376 Team Joost
8 David Bixby   Phoenix, AZ00:00:00.00 125651  464 Team RPM
9 Mark Peters   Phoenix, AZ00:00:00.00 206159  463 Team WM
10 John Simonson   Tucson, AZ00:00:00.00 197428  460 GST Racing
11 Joe Struttmann   Tempe, AZ00:00:00.00 205141  469 San Tan Racing/Paragon Cycling
12 Doug Forsha   00:00:00.00  470 Team RPM
13 Edras Joel Essealante   00:00:00.00  468 Honeywell Racing
14 Anthony Ritter   Scottsdale, AZ00:00:00.00 248286  360 Arizona Masters Racing
DNF Stephen Atkins   Tempe, AZ00:00:00.00 272200  324 San Tan Racing/Paragon Cycling
DNF Paul Domingue   Cornwall On Hudson, NY00:00:00.00 216715  454 Saguaro Velo
DNF Kenneth Doss   Glendale, AZ00:00:00.00 9873  455 Bicycle Haus Racing
DNF Richard Graubard   Scottsdale, AZ00:00:00.00 188423  456 Bicycle Ranch
DNF Charles Higgins   Phoenix, AZ00:00:00.00 188528  457 Landis/Trek
DNF Jeffrey Ulbrich   Tucson, AZ00:00:00.00 206909  461 
DNF Peter Smith   Scottsdale, AZ00:00:00.00 266653  647 Bicycle Ranch
DNF John HOLMSTUL   00:00:00.00   Team RPM
DNF Jim OSTREM   00:00:00.00  466 Team RPM
DNF Joe CUNNINGHAM   00:00:00.00   Team RPM

Men - Masters - 60-99

 Place Points NameCity, StateTime USAC #BibTeam
1 Robert Tompkins   Anthem, AZ00:00:00.00 305794  585 Arizona Masters Racing
2 Richard Ellwanger   Tucson, AZ00:00:00.00 272136  581 Aggress
2 Norman Kibble   Tucson, AZ00:00:00.00 45539  586 Team RPM
4 Stephen Lace   Tucson, AZ00:00:00.00 304559  582 Team RPM
5 Richard Root (1 - Cat3)   Scottsdale, AZ00:00:00.00 52195  584 Midwest Masters Cycling Team
DNS Ephraim Maor   Glendale, AZ00:00:00.00 256763  583 Tribe Racing
DNS Jack Sorahan (Cat4)   Glendale, AZ00:00:00.00 107762   Team RPM

Men - Masters - 70-99

 Place Points NameCity, StateTime USAC #BibTeam
1 Howard Jacobs   00:00:00.00  831 Unattached

Men - Junior - 13-14

 Place Points NameCity, StateTime USAC #BibTeam
1 Sean Biever   Phoenix, AZ00:00:00.00 281996  201 El Grupo Youth Cycling
2 Kenny Polley   Peoria, AZ00:00:00.00 255203  216 Landis/Trek
3 Brandon McNulty   Phoenix, AZ00:00:00.00 275694  901 Swiss American

Men - Junior - 15-16

 Place Points NameCity, StateTime USAC #BibTeam
1 Nick Thorpe   Scottsdale, AZ00:00:00.00 287472  220 Notre Dame Strada Junior Team
2 Ryan Geiger   Flagstaff, AZ00:00:00.00 258285  902 Unattached
3 Don Henley   Phoenix, AZ00:00:00.00 300281  213 Strada Racing Club Team

Men - Junior - 17-18

 Place Points NameCity, StateTime USAC #BibTeam
1 Robert Chorost   Tucson, AZ00:00:00.00 272430  903 Ride Clean
2 David Colex   Phoenix, AZ00:00:00.00 289724  204 

Women - Cat 1/2

 Place Points NameCity, StateTime USAC #BibTeam
1 Angela Axmann   Phoenix, AZ00:00:00.00 245615  181 AllSport GPS AZ Women Racing
2 Megan French   Phoenix, AZ00:00:00.00 157545  190 AllSport GPS AZ Women Racing
3 Chloe Forsman   Tucson, AZ00:00:00.00 214920  186 Specialized Designs
4 Cara Bussell   Colorado Springs, CO00:00:00.00 295070  187 TriSports/Ecllipse
5 Kelsey Withrow   Santa Cruz, CA00:00:00.00 202477  184 
6 Catherine Dickson   Glendale, AZ00:00:00.00 177668  182 AllSport GPS AZ Women Racing
7 Melanie Meyers   Flagstaff, AZ00:00:00.00 196731  183 Specialized Designs
8 Judy Jenkins   Tucson, AZ00:00:00.00 263876  185 Specialized Designs

Women - Cat 3

 Place Points NameCity, StateTime USAC #BibTeam
1 Jill Sugg   Anthem, AZ00:00:00.00 270889  689 Allsport GPS AZ Women Racing
2 Ashley Koch   Scottsdale, AZ00:00:00.00 287717  688 Allsport GPS AZ Women Racing
3 teri twarkins   Scottsdale, AZ00:00:00.00 280506  687 Allsport GPS AZ Women Racing
4 Katherine Farago   Mesa, AZ00:00:00.00 141474  803 Thiele's Automotive

Women - Cat 4

 Place Points NameCity, StateTime USAC #BibTeam
1 Debbie Hunter   Scottsdale, AZ00:00:00.00 305458  438 Bicycle Ranch
2 Desirae Noonan   Phoenix, AZ00:00:00.00 307189  432 Bicycle Ranch
3 Shawn Shoemaker   Phoenix, AZ00:00:00.00 287554  434 AllSport GPS AZ Womens Racing
4 Glenys Johnson   Yuma, AZ00:00:00.00 306692  427 YBC
5 Kendra Dunlap   Mesa, AZ00:00:00.00 305425  428 AllSport GPS AZ Women Cycling
6 Susan Frank   Tucson, AZ00:00:00.00 277104  439 Team RPM
7 Terri Hay   Anthem, AZ00:00:00.00 305922  441 AllSport GPS AZ Womens Racing
8 Pamela Sponholtz   Wheat Ridge, CO00:00:00.00 304305  433 Allsports GPS AZ Women Racing
9 Shawna Glazier   Phoenix, AZ00:00:00.00 303720  440 Two Wheel Jones
10 Jerri Manley   Tempe, AZ00:00:00.00 305233  436 Strada Racing Club
11 Orly Maor   Glendale, AZ00:00:00.00 268011  429 AllSport GPS AZ Women Racing
12 Christina ZIMMERMAN   00:00:00.00  435 
DNS Holly Stabler   Phoenix, AZ00:00:00.00 306391  426 AllSport GPS AZ Women Racing
DNS Julie Cornelius   Tucson, AZ00:00:00.00 237919  430 
DNS Danielle DeCaro   Prescott Valley, AZ00:00:00.00 130465  437 AllSport GPS AZ Women Racing
DNF MaryJane Colson   Cavecreek, AZ00:00:00.00 306103  431 Strada Racing Club

Women - Masters - 35-99

 Place Points NameCity, StateTime USAC #BibTeam
1 Catherine Dickson   Glendale, AZ00:00:00.00 177668  191 AllSport GPS AZ Women Racing
2 Jill Purcell   Mesa, AZ00:00:00.00 239414  192 Tribe
3 Megan French   Phoenix, AZ00:00:00.00 157545  190 AllSport GPS AZ Women Racing
DNF Katherine Farago   Mesa, AZ00:00:00.00 141474   Thiele's Automotive

Women - Masters - 60-99

 Place Points NameCity, StateTime USAC #BibTeam
DNS Julianna Kimball   Phoenix, AZ00:00:00.00 180320   Summit Velo

Report missing or incorrect license numbers

Volkswagen
ShimanoBonk BreakerCUORESpyOSMOSierra NevadaUSACDF
UCI USA Cycling is the official governing body for all disciplines of competitive cycling in the United States. The 501c3, membership-based organization aims both to achieve sustained success in international cycling competition and to grow competitive cycling in America while delivering an exceptional customer experience.
View Children's Online Privacy Protection Policy
US Olympic Committee